Terminal Aerodrome Forecast
Issued by NWS

Home | Current Version | Previous Version | Text Only | Print | Product List | Glossary On
Versions: 1 2 3 4 5 6 7 8 9 10 11 12 13 14 15
000
FTUS45 KBOI 271733
TAFTWF
TAF
KTWF 271733Z 2718/2818 27015G25KT P6SM FEW100 SCT250
     FM272200 28015G28KT P6SM VCSH SCT070 BKN250
     FM280200 21011KT P6SM FEW250=

USA.gov is the U.S. government's official web portal to all federal, state and local government web resources and services.